createdAt,value
2022-11-08T00:01:06.126Z,72.00
2022-11-08T00:03:36.821Z,72.04
2022-11-08T00:06:28.326Z,71.81
2022-11-08T00:09:16.068Z,72.16
2022-11-08T00:12:03.076Z,71.98
2022-11-08T00:14:32.802Z,72.13
2022-11-08T00:17:07.929Z,72.16
2022-11-08T00:19:39.678Z,72.15
2022-11-08T00:22:25.465Z,71.72
2022-11-08T00:24:58.960Z,71.77
2022-11-08T00:27:30.432Z,71.94
2022-11-08T00:30:02.320Z,72.04
2022-11-08T00:32:31.342Z,72.12
2022-11-08T00:35:03.156Z,72.06
2022-11-08T00:37:35.723Z,71.92
2022-11-08T00:40:08.967Z,72.24
2022-11-08T00:42:38.658Z,72.13
2022-11-08T00:45:27.751Z,72.23
2022-11-08T00:47:57.003Z,72.50
2022-11-08T00:50:27.541Z,72.53
2022-11-08T00:52:57.996Z,72.42
2022-11-08T00:55:28.584Z,72.38
2022-11-08T00:58:00.033Z,72.34
2022-11-08T01:00:29.639Z,72.67
2022-11-08T01:03:12.148Z,72.44
2022-11-08T01:05:41.388Z,72.76
2022-11-08T01:08:11.327Z,72.75
2022-11-08T01:10:44.300Z,72.80
2022-11-08T01:13:14.338Z,72.66
2022-11-08T01:15:46.513Z,72.54
2022-11-08T01:18:18.784Z,72.63
2022-11-08T01:20:50.449Z,72.36
2022-11-08T01:23:39.124Z,72.70
2022-11-08T01:26:15.264Z,72.69
2022-11-08T01:28:44.368Z,72.89
2022-11-08T01:31:18.147Z,73.05
2022-11-08T01:33:51.695Z,73.23
2022-11-08T01:36:25.109Z,73.35
2022-11-08T01:38:55.416Z,73.08
2022-11-08T01:41:27.920Z,73.18
2022-11-08T01:44:00.968Z,73.19
2022-11-08T01:46:48.514Z,73.29
2022-11-08T01:49:47.137Z,73.41
2022-11-08T01:52:27.666Z,73.17
2022-11-08T01:55:11.083Z,72.64
2022-11-08T01:57:48.269Z,72.93
2022-11-08T02:00:18.037Z,72.93
2022-11-08T02:02:53.406Z,72.89
2022-11-08T02:05:28.721Z,73.12
2022-11-08T02:08:06.105Z,73.10
2022-11-08T02:10:37.620Z,72.75
2022-11-08T02:13:14.850Z,73.14
2022-11-08T02:15:45.785Z,72.76
2022-11-08T02:18:17.048Z,72.71
2022-11-08T02:20:53.257Z,72.79
2022-11-08T02:23:29.038Z,72.58
2022-11-08T02:26:02.223Z,72.96
2022-11-08T02:28:32.858Z,72.66
2022-11-08T02:31:01.822Z,72.94
2022-11-08T02:33:33.089Z,73.15
2022-11-08T02:36:02.103Z,73.12
2022-11-08T02:38:31.974Z,73.25
2022-11-08T02:41:02.954Z,73.19
2022-11-08T02:43:34.243Z,73.25
2022-11-08T02:46:04.222Z,73.01
2022-11-08T02:48:36.411Z,72.83
2022-11-08T02:51:08.192Z,72.65
2022-11-08T02:53:37.519Z,72.46
2022-11-08T02:56:08.873Z,72.90
2022-11-08T02:58:37.934Z,72.81
2022-11-08T03:01:07.031Z,72.96
2022-11-08T03:03:36.601Z,73.12
2022-11-08T03:06:04.773Z,73.11
2022-11-08T03:08:32.355Z,73.05
2022-11-08T03:11:00.502Z,72.87
2022-11-08T03:13:29.464Z,72.92
2022-11-08T03:15:57.041Z,72.67
2022-11-08T03:18:24.701Z,73.00
2022-11-08T03:20:52.213Z,72.85
2022-11-08T03:23:20.745Z,73.03
2022-11-08T03:25:48.357Z,73.21
2022-11-08T03:28:20.310Z,73.38
2022-11-08T03:30:53.251Z,74.18
2022-11-08T03:33:21.750Z,73.92
2022-11-08T03:35:49.948Z,74.04
2022-11-08T03:38:18.204Z,73.91
2022-11-08T03:40:46.737Z,73.88
2022-11-08T03:43:14.883Z,73.94
2022-11-08T03:45:42.512Z,74.02
2022-11-08T03:48:11.476Z,74.21
2022-11-08T03:50:39.252Z,74.30
2022-11-08T03:53:06.800Z,74.34
2022-11-08T03:55:34.388Z,74.69
2022-11-08T03:58:01.990Z,74.48
2022-11-08T04:00:30.767Z,74.31
2022-11-08T04:03:03.344Z,75.03
2022-11-08T04:05:33.560Z,74.38
2022-11-08T04:08:02.175Z,74.28
2022-11-08T04:10:29.877Z,74.41
2022-11-08T04:13:18.135Z,73.94
2022-11-08T04:15:46.587Z,73.88
2022-11-08T04:18:31.815Z,74.06
2022-11-08T04:21:21.658Z,73.93
2022-11-08T04:23:50.541Z,73.88
2022-11-08T04:26:19.098Z,73.66
2022-11-08T04:28:47.180Z,73.51
2022-11-08T04:31:16.291Z,73.51
2022-11-08T04:33:43.929Z,73.50
2022-11-08T04:36:14.527Z,73.70
2022-11-08T04:38:42.314Z,73.85
2022-11-08T04:41:12.630Z,73.76
2022-11-08T04:43:40.816Z,73.68
2022-11-08T04:46:11.065Z,73.43
2022-11-08T04:48:39.100Z,73.63
2022-11-08T04:51:09.388Z,73.35
2022-11-08T04:53:38.569Z,73.42
2022-11-08T04:56:08.141Z,73.16
2022-11-08T04:58:36.819Z,73.34
2022-11-08T05:01:06.338Z,73.25
2022-11-08T05:03:34.941Z,73.48
2022-11-08T05:06:03.710Z,73.12
2022-11-08T05:08:32.123Z,73.05
2022-11-08T05:11:06.657Z,73.33
2022-11-08T05:13:34.671Z,73.22
2022-11-08T05:16:03.756Z,73.37
2022-11-08T05:18:32.742Z,73.20
2022-11-08T05:21:19.582Z,72.99
2022-11-08T05:23:50.535Z,72.97
2022-11-08T05:26:23.302Z,72.93
2022-11-08T05:28:50.751Z,73.10
2022-11-08T05:31:18.853Z,72.95
2022-11-08T05:33:46.898Z,73.02
2022-11-08T05:36:17.260Z,73.05
2022-11-08T05:38:45.206Z,72.70
2022-11-08T05:41:15.754Z,72.90
2022-11-08T05:43:46.841Z,72.73
2022-11-08T05:46:15.255Z,72.67
2022-11-08T05:48:44.019Z,72.51
2022-11-08T05:51:12.859Z,72.24
2022-11-08T05:53:40.662Z,72.30
2022-11-08T05:56:09.037Z,72.19
2022-11-08T05:58:37.453Z,72.13
2022-11-08T06:01:08.896Z,71.97
2022-11-08T06:03:36.643Z,71.92
2022-11-08T06:06:06.622Z,71.59
2022-11-08T06:08:34.184Z,71.40
2022-11-08T06:11:04.903Z,71.28
2022-11-08T06:13:33.674Z,71.17
2022-11-08T06:16:02.070Z,71.37
2022-11-08T06:18:31.597Z,71.08
2022-11-08T06:20:59.311Z,71.42
2022-11-08T06:23:27.071Z,70.83
2022-11-08T06:25:54.795Z,70.45
2022-11-08T06:28:23.019Z,70.64
2022-11-08T06:30:51.419Z,70.56
2022-11-08T06:33:19.548Z,70.45
2022-11-08T06:35:48.882Z,70.15
2022-11-08T06:38:16.490Z,70.11
2022-11-08T06:40:44.869Z,70.02
2022-11-08T06:43:19.046Z,69.75
2022-11-08T06:45:47.397Z,69.23
2022-11-08T06:48:14.926Z,69.11
2022-11-08T06:50:43.423Z,69.20
2022-11-08T06:53:14.975Z,68.87
2022-11-08T06:55:42.870Z,69.04
2022-11-08T06:58:11.628Z,69.00
2022-11-08T07:00:39.254Z,69.02
2022-11-08T07:03:06.933Z,68.67
2022-11-08T07:05:36.626Z,68.31
2022-11-08T07:08:04.972Z,68.83
2022-11-08T07:10:34.388Z,68.81
2022-11-08T07:13:03.696Z,68.26
2022-11-08T07:15:31.695Z,67.85
2022-11-08T07:18:01.623Z,67.57
2022-11-08T07:20:29.568Z,67.38
2022-11-08T07:22:57.797Z,67.41
2022-11-08T07:25:26.186Z,67.37
2022-11-08T07:27:57.157Z,67.20
2022-11-08T07:30:25.385Z,67.07
2022-11-08T07:32:53.088Z,67.17
2022-11-08T07:35:20.601Z,66.77
2022-11-08T07:37:48.143Z,66.64
2022-11-08T07:40:15.943Z,66.46
2022-11-08T07:43:10.080Z,66.18
2022-11-08T07:45:32.790Z,66.09
2022-11-08T07:48:03.406Z,65.79
2022-11-08T07:50:34.739Z,66.00
2022-11-08T07:53:02.222Z,66.02
2022-11-08T07:55:29.749Z,65.86
2022-11-08T07:58:01.353Z,65.58
2022-11-08T08:00:29.018Z,65.20
2022-11-08T08:03:00.305Z,64.96
2022-11-08T08:05:28.336Z,65.18
2022-11-08T08:07:58.606Z,64.72
2022-11-08T08:10:26.478Z,65.10
2022-11-08T08:12:54.097Z,64.92
2022-11-08T08:15:21.655Z,64.40
2022-11-08T08:17:49.261Z,64.69
2022-11-08T08:20:19.214Z,64.49
2022-11-08T08:22:47.120Z,63.95
2022-11-08T08:25:14.966Z,63.46
2022-11-08T08:27:47.557Z,63.24
2022-11-08T08:30:16.031Z,63.50
2022-11-08T08:32:43.587Z,63.22
2022-11-08T08:35:12.546Z,63.13
2022-11-08T08:37:41.631Z,62.71
2022-11-08T08:40:11.128Z,62.35
2022-11-08T08:42:38.644Z,61.85
2022-11-08T08:45:12.052Z,61.51
2022-11-08T08:47:42.129Z,61.27
2022-11-08T08:50:10.114Z,61.21
2022-11-08T08:52:37.658Z,60.91
2022-11-08T08:55:07.656Z,60.38
2022-11-08T08:57:35.208Z,60.56
2022-11-08T09:02:50.937Z,60.08
2022-11-08T09:05:18.876Z,59.94
2022-11-08T09:07:46.379Z,59.59
2022-11-08T09:10:16.115Z,59.02
2022-11-08T09:12:43.628Z,59.24
2022-11-08T09:15:11.379Z,58.80
2022-11-08T09:17:38.875Z,58.46
2022-11-08T09:20:07.374Z,58.15
2022-11-08T09:22:35.232Z,57.69
2022-11-08T09:25:02.756Z,56.68
2022-11-08T09:27:32.103Z,55.75
2022-11-08T09:29:59.918Z,55.51
2022-11-08T09:32:46.655Z,54.85
2022-11-08T09:35:16.616Z,54.50
2022-11-08T09:37:47.109Z,54.29
2022-11-08T09:40:19.389Z,53.68
2022-11-08T09:42:56.159Z,53.02
2022-11-08T09:45:29.015Z,53.08
2022-11-08T09:48:00.145Z,52.78
2022-11-08T09:50:36.159Z,51.69
2022-11-08T09:53:19.634Z,51.32
2022-11-08T09:55:52.213Z,50.85
2022-11-08T09:58:27.417Z,51.05
2022-11-08T10:00:55.334Z,51.09
2022-11-08T10:03:25.502Z,49.33
2022-11-08T10:06:07.430Z,49.15
2022-11-08T10:08:42.944Z,49.15
2022-11-08T10:11:30.366Z,48.34
2022-11-08T10:14:12.605Z,48.07
2022-11-08T10:16:47.735Z,46.72
2022-11-08T10:19:34.851Z,45.99
2022-11-08T10:22:06.375Z,44.93
2022-11-08T10:24:36.504Z,44.32
2022-11-08T10:27:11.050Z,45.29
2022-11-08T10:29:44.077Z,44.72
2022-11-08T10:32:16.090Z,44.00
2022-11-08T10:34:51.065Z,41.78
2022-11-08T10:37:19.085Z,42.09
2022-11-08T10:39:54.427Z,40.37
2022-11-08T10:42:30.836Z,39.91
2022-11-08T10:45:00.213Z,40.07
2022-11-08T10:47:30.295Z,39.08
2022-11-08T10:50:03.345Z,38.78
2022-11-08T10:52:35.940Z,39.04
2022-11-08T10:55:07.363Z,39.40
2022-11-08T10:57:40.480Z,40.75
2022-11-08T11:00:27.274Z,38.71
2022-11-08T11:02:56.697Z,39.81
2022-11-08T11:05:29.429Z,38.99
2022-11-08T11:08:03.300Z,39.56
2022-11-08T11:10:33.043Z,40.16
2022-11-08T11:13:04.134Z,41.02
2022-11-08T11:15:35.735Z,41.75
2022-11-08T11:18:04.027Z,42.52
2022-11-08T11:20:32.002Z,42.80
2022-11-08T11:23:01.204Z,42.78
2022-11-08T11:25:28.910Z,42.58
2022-11-08T11:27:59.418Z,42.29
2022-11-08T11:30:34.221Z,42.60
2022-11-08T11:33:05.140Z,42.61
2022-11-08T11:35:39.113Z,42.80
2022-11-08T11:38:16.070Z,42.88
2022-11-08T11:40:47.766Z,42.82
2022-11-08T11:43:22.990Z,43.17
2022-11-08T11:45:56.588Z,42.85
2022-11-08T11:48:29.132Z,43.35
2022-11-08T11:50:57.609Z,43.16
2022-11-08T11:53:28.366Z,42.74
2022-11-08T11:56:19.215Z,42.33
2022-11-08T11:59:06.253Z,41.33
2022-11-08T12:01:50.564Z,39.84
2022-11-08T12:05:03.271Z,40.34
2022-11-08T12:07:32.861Z,40.34
2022-11-08T12:10:16.280Z,40.59
2022-11-08T12:12:57.876Z,41.26
2022-11-08T12:15:31.814Z,41.35
2022-11-08T12:18:42.885Z,41.32
2022-11-08T12:21:14.788Z,40.53
2022-11-08T12:23:58.720Z,40.91
2022-11-08T12:26:32.603Z,40.53
2022-11-08T12:29:12.359Z,41.43
2022-11-08T12:31:49.001Z,41.42
2022-11-08T12:34:23.690Z,41.79
2022-11-08T12:37:04.543Z,42.37
2022-11-08T12:39:39.126Z,42.70
2022-11-08T12:42:18.423Z,40.86
2022-11-08T12:45:17.315Z,41.14
2022-11-08T12:47:48.202Z,43.34
2022-11-08T12:50:30.063Z,42.41
2022-11-08T12:53:14.332Z,44.98
2022-11-08T12:55:44.086Z,42.75
2022-11-08T12:58:31.601Z,42.80
2022-11-08T13:01:06.055Z,43.03
2022-11-08T13:03:57.928Z,42.99
2022-11-08T13:06:35.446Z,42.92
2022-11-08T13:09:10.375Z,42.74
2022-11-08T13:11:44.356Z,43.04
2022-11-08T13:14:16.568Z,43.34
2022-11-08T13:16:46.480Z,43.61
2022-11-08T13:19:30.226Z,44.10
2022-11-08T13:21:59.087Z,44.30
2022-11-08T13:24:45.408Z,44.79
2022-11-08T13:27:25.063Z,44.52
2022-11-08T13:29:53.809Z,44.83
2022-11-08T13:32:35.471Z,44.83
2022-11-08T13:35:09.427Z,44.98
2022-11-08T13:37:59.204Z,45.25
2022-11-08T13:40:44.542Z,45.46
2022-11-08T13:43:23.607Z,45.51
2022-11-08T13:45:51.832Z,45.84
2022-11-08T13:48:41.199Z,46.08
2022-11-08T13:51:26.795Z,46.30
2022-11-08T13:53:58.618Z,46.75
2022-11-08T13:56:42.587Z,47.24
2022-11-08T13:59:49.050Z,47.51
2022-11-08T14:02:35.764Z,47.71
2022-11-08T14:05:26.328Z,48.06
2022-11-08T14:08:20.700Z,48.23
2022-11-08T14:11:33.847Z,48.65
2022-11-08T14:14:27.358Z,48.73
2022-11-08T14:17:09.580Z,48.96
2022-11-08T14:19:40.504Z,49.39
2022-11-08T14:22:16.354Z,49.24
2022-11-08T14:24:44.685Z,49.45
2022-11-08T14:27:16.114Z,49.93
2022-11-08T14:29:43.908Z,49.70
2022-11-08T14:32:20.225Z,50.22
2022-11-08T14:34:47.845Z,50.17
2022-11-08T14:37:22.676Z,50.45
2022-11-08T14:39:52.126Z,50.50
2022-11-08T14:42:24.195Z,50.79
2022-11-08T14:44:54.942Z,50.70
2022-11-08T14:47:28.544Z,50.99
2022-11-08T14:49:56.099Z,50.98
2022-11-08T14:52:27.483Z,51.53
2022-11-08T14:55:05.546Z,51.98
2022-11-08T14:57:37.036Z,52.05
2022-11-08T15:00:14.528Z,52.20
2022-11-08T15:02:44.137Z,52.52
2022-11-08T15:05:27.853Z,52.69
2022-11-08T15:07:55.516Z,52.74
2022-11-08T15:10:23.258Z,53.01
2022-11-08T15:12:52.768Z,53.43
2022-11-08T15:15:24.534Z,53.70
2022-11-08T15:18:11.859Z,53.86
2022-11-08T15:20:39.931Z,53.75
2022-11-08T15:23:33.507Z,54.18
2022-11-08T15:26:01.715Z,54.47
2022-11-08T15:28:35.119Z,54.53
2022-11-08T15:31:05.353Z,54.87
2022-11-08T15:33:38.293Z,54.67
2022-11-08T15:36:13.277Z,55.12
2022-11-08T15:38:42.634Z,54.84
2022-11-08T15:41:31.079Z,55.10
2022-11-08T15:44:14.283Z,55.21
2022-11-08T15:46:42.312Z,55.09
2022-11-08T15:49:21.635Z,55.57
2022-11-08T15:51:50.610Z,55.65
2022-11-08T15:54:18.996Z,55.57
2022-11-08T15:56:48.168Z,55.71
2022-11-08T15:59:21.444Z,56.01
2022-11-08T16:01:55.175Z,56.54
2022-11-08T16:04:22.861Z,56.00
2022-11-08T16:06:50.454Z,56.25
2022-11-08T16:09:18.013Z,56.62
2022-11-08T16:11:46.156Z,56.79
2022-11-08T16:14:18.761Z,57.45
2022-11-08T16:16:46.211Z,56.93
2022-11-08T16:19:19.340Z,58.20
2022-11-08T16:21:46.972Z,57.67
2022-11-08T16:24:14.509Z,57.76
2022-11-08T16:26:43.506Z,57.88
2022-11-08T16:29:20.920Z,58.08
2022-11-08T16:31:48.895Z,57.96
2022-11-08T16:34:16.537Z,58.06
2022-11-08T16:36:45.659Z,58.10
2022-11-08T16:39:16.435Z,58.22
2022-11-08T16:41:44.145Z,58.31
2022-11-08T16:44:12.257Z,58.53
2022-11-08T16:46:41.821Z,58.75
2022-11-08T16:49:19.684Z,59.41
2022-11-08T16:51:47.230Z,58.88
2022-11-08T16:54:19.027Z,59.67
2022-11-08T16:56:46.576Z,59.11
2022-11-08T16:59:14.838Z,59.28
2022-11-08T17:01:44.720Z,59.41
2022-11-08T17:04:12.301Z,59.45
2022-11-08T17:06:39.864Z,59.55
2022-11-08T17:09:07.497Z,59.48
2022-11-08T17:11:35.076Z,59.63
2022-11-08T17:14:03.032Z,59.71
2022-11-08T17:16:31.064Z,59.89
2022-11-08T17:18:59.909Z,60.35
2022-11-08T17:21:44.307Z,60.15
2022-11-08T17:24:17.039Z,60.21
2022-11-08T17:26:48.666Z,60.23
2022-11-08T17:29:16.172Z,60.14
2022-11-08T17:31:43.686Z,60.32
2022-11-08T17:34:12.616Z,60.31
2022-11-08T17:36:40.266Z,60.40
2022-11-08T17:39:07.799Z,60.52
2022-11-08T17:41:35.427Z,60.50
2022-11-08T17:44:02.906Z,60.60
2022-11-08T17:46:30.400Z,60.74
2022-11-08T17:48:57.911Z,60.75
2022-11-08T17:51:26.764Z,60.74
2022-11-08T17:53:54.242Z,60.70
2022-11-08T17:56:21.725Z,60.66
2022-11-08T17:58:49.225Z,60.75
2022-11-08T18:01:17.248Z,60.80
2022-11-08T18:03:44.842Z,60.82
2022-11-08T18:06:14.199Z,60.92
2022-11-08T18:08:43.828Z,61.04
2022-11-08T18:11:11.370Z,61.02
2022-11-08T18:13:39.262Z,61.12
2022-11-08T18:16:08.391Z,61.40
2022-11-08T18:18:36.214Z,61.39
2022-11-08T18:21:03.807Z,61.46
2022-11-08T18:23:32.034Z,61.52
2022-11-08T18:26:01.428Z,62.27
2022-11-08T18:28:29.305Z,61.87
2022-11-08T18:30:57.030Z,61.55
2022-11-08T18:33:24.560Z,61.49
2022-11-08T18:35:52.132Z,61.54
2022-11-08T18:38:19.643Z,61.92
2022-11-08T18:40:50.003Z,61.86
2022-11-08T18:43:19.130Z,61.61
2022-11-08T18:45:46.981Z,61.89
2022-11-08T18:48:14.523Z,61.63
2022-11-08T18:50:42.068Z,61.62
2022-11-08T18:53:09.766Z,61.56
2022-11-08T18:55:37.265Z,61.70
2022-11-08T18:58:04.790Z,61.78
2022-11-08T19:00:33.661Z,61.81
2022-11-08T19:03:01.957Z,61.63
2022-11-08T19:05:29.535Z,61.85
2022-11-08T19:07:57.093Z,62.01
2022-11-08T19:10:24.641Z,61.91
2022-11-08T19:12:52.221Z,61.81
2022-11-08T19:15:19.739Z,62.02
2022-11-08T19:17:53.643Z,62.05
2022-11-08T19:20:23.864Z,62.10
2022-11-08T19:22:53.887Z,61.97
2022-11-08T19:25:21.413Z,61.91
2022-11-08T19:27:48.922Z,61.84
2022-11-08T19:30:16.536Z,61.77
2022-11-08T19:32:44.046Z,61.72
2022-11-08T19:35:13.052Z,61.70
2022-11-08T19:37:40.709Z,61.58
2022-11-08T19:40:09.684Z,61.48
2022-11-08T19:42:37.248Z,61.66
2022-11-08T19:45:05.366Z,61.60
2022-11-08T19:47:32.883Z,61.61
2022-11-08T19:50:00.377Z,61.46
2022-11-08T19:52:29.210Z,61.40
2022-11-08T19:54:56.764Z,61.40
2022-11-08T19:57:24.336Z,61.69
2022-11-08T19:59:51.970Z,61.71
2022-11-08T20:02:19.528Z,61.89
2022-11-08T20:04:47.156Z,61.75
2022-11-08T20:07:14.933Z,61.65
2022-11-08T20:09:43.789Z,61.87
2022-11-08T20:12:11.443Z,61.82
2022-11-08T20:14:38.976Z,61.96
2022-11-08T20:17:06.508Z,61.86
2022-11-08T20:19:34.029Z,62.01
2022-11-08T20:22:01.570Z,61.98
2022-11-08T20:24:29.115Z,62.04
2022-11-08T20:26:58.022Z,62.13
2022-11-08T20:29:25.685Z,62.12
2022-11-08T20:31:54.296Z,62.19
2022-11-08T20:34:21.898Z,62.12
2022-11-08T20:36:49.385Z,62.06
2022-11-08T20:39:17.343Z,62.03
2022-11-08T20:41:45.048Z,62.30
2022-11-08T20:44:16.346Z,62.05
2022-11-08T20:46:43.853Z,62.06
2022-11-08T20:49:11.561Z,62.08
2022-11-08T20:51:39.144Z,61.92
2022-11-08T20:54:07.195Z,62.21
2022-11-08T20:56:34.749Z,62.45
2022-11-08T20:59:02.591Z,62.59
2022-11-08T21:01:34.174Z,62.35
2022-11-08T21:04:01.918Z,62.35
2022-11-08T21:09:37.477Z,62.45
2022-11-08T21:12:12.964Z,62.23
2022-11-08T21:14:42.614Z,62.18
2022-11-08T21:17:21.859Z,62.41
2022-11-08T21:19:54.729Z,62.63
2022-11-08T21:22:34.306Z,62.77
2022-11-08T21:25:14.543Z,62.84
2022-11-08T21:27:58.887Z,62.79
2022-11-08T21:30:49.020Z,62.75
2022-11-08T21:33:26.161Z,62.71
2022-11-08T21:36:03.328Z,62.67
2022-11-08T21:38:54.958Z,62.67
2022-11-08T21:41:44.041Z,62.78
2022-11-08T21:44:34.501Z,62.71
2022-11-08T21:54:09.579Z,62.55
2022-11-08T22:00:06.645Z,62.65
2022-11-08T22:03:01.079Z,62.66
2022-11-08T22:05:40.183Z,62.43
2022-11-08T22:08:16.335Z,62.39
2022-11-08T22:11:09.053Z,62.15
2022-11-08T22:13:55.694Z,62.18
2022-11-08T22:16:31.892Z,61.92
2022-11-08T22:19:28.932Z,61.84
2022-11-08T22:22:32.989Z,61.63
2022-11-08T22:25:11.360Z,61.23
2022-11-08T22:27:46.064Z,61.22
2022-11-08T22:30:31.397Z,61.36
2022-11-08T22:33:17.600Z,61.48
2022-11-08T22:35:54.355Z,61.28
2022-11-08T22:38:42.633Z,60.91
2022-11-08T22:41:26.217Z,61.00
2022-11-08T22:44:01.189Z,61.34
2022-11-08T22:46:33.976Z,61.04
2022-11-08T22:49:07.651Z,60.86
2022-11-08T22:51:47.862Z,60.97
2022-11-08T22:54:28.204Z,60.60
2022-11-08T22:57:01.597Z,60.12
2022-11-08T22:59:43.934Z,60.17
2022-11-08T23:02:20.781Z,60.16
2022-11-08T23:08:42.911Z,60.16
2022-11-08T23:11:31.752Z,59.97
2022-11-08T23:14:19.258Z,59.90
2022-11-08T23:17:18.427Z,59.92
2022-11-08T23:23:14.834Z,60.25
2022-11-08T23:29:03.802Z,60.91
2022-11-08T23:31:47.375Z,60.37
2022-11-08T23:34:50.265Z,60.69
2022-11-08T23:37:41.759Z,60.41
2022-11-08T23:40:45.988Z,60.26
2022-11-08T23:43:36.611Z,60.19
2022-11-08T23:46:24.641Z,60.21
2022-11-08T23:49:27.150Z,60.32
2022-11-08T23:52:31.626Z,60.30
2022-11-08T23:55:26.827Z,60.28
2022-11-08T23:58:13.161Z,60.29
